首页
METAR-TAF:

METAR-TAF

机场 :

仁川國際機場

仁川国际机场, 大韩民国

纬度: 37-28N, 经度: 126-27E, 海拔: 7米

当前天气观测

该预报发布于24分钟前的17:30 UTC
风速5节,风向
温度 19°C
湿度 68%
气压 1005 hPa
能見度: 0400
多云层高于500英尺

METAR: RKSI 231730Z 18005KT 0400 R33R/0400N R33L/0400U R34/0200N FG BKN005 19/13 Q1005 NOSIG

时间: 02:54 (17:54 UTC)

预报

该预报发布于24分钟前的17:30 UTC
预报有效从23日的 18点(UTC)到 24日的 24点(UTC)
风速5节,风向西
能見度: 1600
散云层高于500英尺
轻雾
短暂存在
从 23日的 18点(UTC)到 23日的 22点(UTC)
能見度: 0400
多云层高于400英尺
成为
从 23日的 23点(UTC)到 23日的 24点(UTC)
风速5节,风向南转南东
能見度: 7000
成为
从 24日的 02点(UTC)到 24日的 03点(UTC)
风速7节,风向西转西南
成为
从 24日的 12点(UTC)到 24日的 13点(UTC)
风速5节,风向南转南东
能見度: 3500
轻雾

TAF: RKSI 231730Z 2318/2424 27005KT 1600 BR SCT005 TN19/2321Z TX26/2406Z TN19/2421Z TEMPO 2318/2322 0400 FG BKN004 BECMG 2323/2324 16005KT 7000 NSW BECMG 2402/2403 25007KT BECMG 2412/2413 16005KT 3500 BR

超过4000个机场的气象观测和天气预报(METAR&TAF报告)。

可查询的气象台以黄色和红色小点在地图上表示。

将鼠标移到小点上方,可查看气象台名称。

然后点击查看天气观测和预报。

如需切换地图:点击带黑十字的绿色按钮放大地图;点击带横线的绿色按钮缩小地图;或者点击绿色箭头查看邻近地区的地图。


METAR-TAF: